sensor_id;sensor_type;location;lat;lon;timestamp;noise_LAeq;noise_LA_min;noise_LA_max;noise_LA01;noise_LA95
66459;Laerm;56836;52.570;4.692;2022-11-20T00:00:08;48.36;47.40;49.25;;
66459;Laerm;56836;52.570;4.692;2022-11-20T00:00:19;48.42;47.68;49.35;;
66459;Laerm;56836;52.570;4.692;2022-11-20T00:00:29;48.38;47.47;49.18;;
66459;Laerm;56836;52.570;4.692;2022-11-20T00:00:39;48.34;47.39;49.28;;
66459;Laerm;56836;52.570;4.692;2022-11-20T00:00:50;48.35;47.36;49.17;;
66459;Laerm;56836;52.570;4.692;2022-11-20T00:01:11;48.37;47.43;49.34;;
66459;Laerm;56836;52.570;4.692;2022-11-20T00:01:22;48.34;47.34;49.29;;
66459;Laerm;56836;52.570;4.692;2022-11-20T00:01:33;48.35;47.40;49.27;;
66459;Laerm;56836;52.570;4.692;2022-11-20T00:01:43;48.38;47.48;49.24;;
66459;Laerm;56836;52.570;4.692;2022-11-20T00:01:54;48.36;47.52;49.73;;
66459;Laerm;56836;52.570;4.692;2022-11-20T00:02:04;48.41;47.49;49.50;;
66459;Laerm;56836;52.570;4.692;2022-11-20T00:02:17;48.37;47.43;49.33;;
66459;Laerm;56836;52.570;4.692;2022-11-20T00:02:27;48.37;47.47;49.42;;
66459;Laerm;56836;52.570;4.692;2022-11-20T00:02:38;48.37;47.41;49.22;;
66459;Laerm;56836;52.570;4.692;2022-11-20T00:02:48;48.38;47.43;49.54;;
66459;Laerm;56836;52.570;4.692;2022-11-20T00:02:58;48.37;47.43;49.23;;
66459;Laerm;56836;52.570;4.692;2022-11-20T00:03:09;48.39;47.70;49.48;;
66459;Laerm;56836;52.570;4.692;2022-11-20T00:03:19;48.36;47.59;49.37;;
66459;Laerm;56836;52.570;4.692;2022-11-20T00:03:30;48.42;47.55;49.30;;
66459;Laerm;56836;52.570;4.692;2022-11-20T00:03:40;48.45;47.26;49.46;;
66459;Laerm;56836;52.570;4.692;2022-11-20T00:03:52;48.40;47.47;49.52;;
66459;Laerm;56836;52.570;4.692;2022-11-20T00:04:03;48.38;47.64;49.21;;
66459;Laerm;56836;52.570;4.692;2022-11-20T00:04:13;48.38;47.48;49.28;;
66459;Laerm;56836;52.570;4.692;2022-11-20T00:04:23;48.37;47.34;49.38;;
66459;Laerm;56836;52.570;4.692;2022-11-20T00:04:34;48.38;47.32;49.38;;
66459;Laerm;56836;52.570;4.692;2022-11-20T00:04:44;48.38;47.39;49.10;;
66459;Laerm;56836;52.570;4.692;2022-11-20T00:04:54;48.38;47.52;49.30;;
66459;Laerm;56836;52.570;4.692;2022-11-20T00:05:05;48.40;47.64;49.34;;
66459;Laerm;56836;52.570;4.692;2022-11-20T00:05:15;48.40;47.46;49.37;;
66459;Laerm;56836;52.570;4.692;2022-11-20T00:05:26;48.43;47.47;49.44;;
66459;Laerm;56836;52.570;4.692;2022-11-20T00:05:36;48.38;47.53;49.21;;
66459;Laerm;56836;52.570;4.692;2022-11-20T00:05:47;48.43;47.37;49.47;;
66459;Laerm;56836;52.570;4.692;2022-11-20T00:06:04;48.37;47.50;49.26;;
66459;Laerm;56836;52.570;4.692;2022-11-20T00:06:15;48.40;47.51;49.32;;
66459;Laerm;56836;52.570;4.692;2022-11-20T00:06:26;48.40;47.38;49.25;;
66459;Laerm;56836;52.570;4.692;2022-11-20T00:06:37;48.38;47.25;49.25;;
66459;Laerm;56836;52.570;4.692;2022-11-20T00:06:47;48.39;47.34;49.23;;
66459;Laerm;56836;52.570;4.692;2022-11-20T00:06:58;48.39;47.67;49.25;;
66459;Laerm;56836;52.570;4.692;2022-11-20T00:07:08;48.46;47.60;49.49;;
66459;Laerm;56836;52.570;4.692;2022-11-20T00:07:18;48.41;47.53;49.31;;
66459;Laerm;56836;52.570;4.692;2022-11-20T00:07:29;48.39;47.33;49.79;;
66459;Laerm;56836;52.570;4.692;2022-11-20T00:07:39;48.42;47.44;49.54;;
66459;Laerm;56836;52.570;4.692;2022-11-20T00:07:49;48.44;47.34;49.34;;
66459;Laerm;56836;52.570;4.692;2022-11-20T00:08:00;48.43;47.49;49.43;;
66459;Laerm;56836;52.570;4.692;2022-11-20T00:08:13;48.40;47.39;49.51;;
66459;Laerm;56836;52.570;4.692;2022-11-20T00:08:23;48.47;47.59;49.24;;
66459;Laerm;56836;52.570;4.692;2022-11-20T00:08:33;48.40;47.63;49.32;;
66459;Laerm;56836;52.570;4.692;2022-11-20T00:08:44;48.40;47.34;49.31;;
66459;Laerm;56836;52.570;4.692;2022-11-20T00:08:55;48.40;47.37;49.32;;
66459;Laerm;56836;52.570;4.692;2022-11-20T00:09:09;48.39;47.56;49.19;;
66459;Laerm;56836;52.570;4.692;2022-11-20T00:09:20;48.37;47.41;49.47;;
66459;Laerm;56836;52.570;4.692;2022-11-20T00:09:30;48.39;47.39;49.28;;
66459;Laerm;56836;52.570;4.692;2022-11-20T00:09:41;48.39;47.50;49.35;;
66459;Laerm;56836;52.570;4.692;2022-11-20T00:09:51;48.39;47.37;49.69;;
66459;Laerm;56836;52.570;4.692;2022-11-20T00:10:01;48.41;47.13;49.21;;
66459;Laerm;56836;52.570;4.692;2022-11-20T00:10:11;48.41;47.35;49.22;;
66459;Laerm;56836;52.570;4.692;2022-11-20T00:10:22;48.42;47.54;49.74;;
66459;Laerm;56836;52.570;4.692;2022-11-20T00:10:32;48.47;47.61;49.24;;
66459;Laerm;56836;52.570;4.692;2022-11-20T00:10:46;48.42;47.43;49.36;;
66459;Laerm;56836;52.570;4.692;2022-11-20T00:10:56;48.43;47.35;49.39;;
66459;Laerm;56836;52.570;4.692;2022-11-20T00:11:07;48.40;47.57;49.26;;
66459;Laerm;56836;52.570;4.692;2022-11-20T00:11:19;48.43;47.41;49.17;;
66459;Laerm;56836;52.570;4.692;2022-11-20T00:11:29;48.39;47.57;49.55;;
66459;Laerm;56836;52.570;4.692;2022-11-20T00:11:40;48.45;47.33;49.29;;
66459;Laerm;56836;52.570;4.692;2022-11-20T00:11:51;48.45;47.48;49.48;;
66459;Laerm;56836;52.570;4.692;2022-11-20T00:12:01;48.42;47.34;49.76;;
66459;Laerm;56836;52.570;4.692;2022-11-20T00:12:11;48.40;47.42;49.29;;
66459;Laerm;56836;52.570;4.692;2022-11-20T00:12:22;48.44;47.46;49.32;;
66459;Laerm;56836;52.570;4.692;2022-11-20T00:12:32;48.42;47.33;49.37;;
66459;Laerm;56836;52.570;4.692;2022-11-20T00:12:43;48.43;47.46;49.43;;
66459;Laerm;56836;52.570;4.692;2022-11-20T00:12:53;48.40;47.38;49.34;;
66459;Laerm;56836;52.570;4.692;2022-11-20T00:13:03;48.39;47.39;49.22;;
66459;Laerm;56836;52.570;4.692;2022-11-20T00:13:14;48.38;47.49;49.44;;
66459;Laerm;56836;52.570;4.692;2022-11-20T00:13:24;48.44;47.54;49.25;;
66459;Laerm;56836;52.570;4.692;2022-11-20T00:13:35;48.41;47.46;49.24;;
66459;Laerm;56836;52.570;4.692;2022-11-20T00:13:46;48.41;47.38;49.31;;
66459;Laerm;56836;52.570;4.692;2022-11-20T00:13:58;48.38;47.35;49.37;;
66459;Laerm;56836;52.570;4.692;2022-11-20T00:14:09;48.40;47.47;49.49;;
66459;Laerm;56836;52.570;4.692;2022-11-20T00:14:19;48.38;47.42;49.58;;
66459;Laerm;56836;52.570;4.692;2022-11-20T00:14:30;48.39;47.53;49.26;;
66459;Laerm;56836;52.570;4.692;2022-11-20T00:14:40;48.33;47.26;49.25;;
66459;Laerm;56836;52.570;4.692;2022-11-20T00:14:51;48.35;47.39;49.37;;
66459;Laerm;56836;52.570;4.692;2022-11-20T00:15:01;48.31;47.31;49.37;;
66459;Laerm;56836;52.570;4.692;2022-11-20T00:15:12;48.33;47.09;49.19;;
66459;Laerm;56836;52.570;4.692;2022-11-20T00:15:23;48.34;47.31;49.20;;
66459;Laerm;56836;52.570;4.692;2022-11-20T00:15:33;48.33;47.63;49.32;;
66459;Laerm;56836;52.570;4.692;2022-11-20T00:15:44;48.28;47.42;49.20;;
66459;Laerm;56836;52.570;4.692;2022-11-20T00:15:58;48.29;47.33;49.28;;
66459;Laerm;56836;52.570;4.692;2022-11-20T00:16:12;48.33;47.20;49.27;;
66459;Laerm;56836;52.570;4.692;2022-11-20T00:16:23;48.31;47.41;49.47;;
66459;Laerm;56836;52.570;4.692;2022-11-20T00:16:34;48.26;47.42;49.30;;
66459;Laerm;56836;52.570;4.692;2022-11-20T00:16:45;48.28;47.36;49.47;;
66459;Laerm;56836;52.570;4.692;2022-11-20T00:16:55;48.29;47.17;49.23;;
66459;Laerm;56836;52.570;4.692;2022-11-20T00:17:05;48.27;47.25;49.29;;
66459;Laerm;56836;52.570;4.692;2022-11-20T00:17:15;48.27;47.38;49.24;;
66459;Laerm;56836;52.570;4.692;2022-11-20T00:17:26;48.29;47.37;49.04;;
66459;Laerm;56836;52.570;4.692;2022-11-20T00:17:36;48.28;47.32;49.36;;
66459;Laerm;56836;52.570;4.692;2022-11-20T00:17:46;48.27;47.28;49.17;;
66459;Laerm;56836;52.570;4.692;2022-11-20T00:17:57;48.27;47.39;49.20;;
66459;Laerm;56836;52.570;4.692;2022-11-20T00:18:07;48.24;47.35;49.14;;
66459;Laerm;56836;52.570;4.692;2022-11-20T00:18:17;48.25;47.32;49.08;;
66459;Laerm;56836;52.570;4.692;2022-11-20T00:18:28;48.31;47.34;49.20;;
66459;Laerm;56836;52.570;4.692;2022-11-20T00:18:38;48.37;47.47;49.24;;
66459;Laerm;56836;52.570;4.692;2022-11-20T00:18:49;48.32;47.55;49.18;;
66459;Laerm;56836;52.570;4.692;2022-11-20T00:18:59;48.30;47.47;49.30;;
66459;Laerm;56836;52.570;4.692;2022-11-20T00:19:09;48.31;47.30;49.11;;
66459;Laerm;56836;52.570;4.692;2022-11-20T00:19:20;48.31;47.22;49.33;;
66459;Laerm;56836;52.570;4.692;2022-11-20T00:19:30;48.30;47.29;49.36;;
66459;Laerm;56836;52.570;4.692;2022-11-20T00:19:40;48.29;47.33;49.19;;
66459;Laerm;56836;52.570;4.692;2022-11-20T00:19:51;48.32;47.46;49.14;;
66459;Laerm;56836;52.570;4.692;2022-11-20T00:20:01;48.31;47.15;49.26;;
66459;Laerm;56836;52.570;4.692;2022-11-20T00:20:11;48.32;47.38;49.23;;
66459;Laerm;56836;52.570;4.692;2022-11-20T00:20:23;48.31;47.43;49.19;;
66459;Laerm;56836;52.570;4.692;2022-11-20T00:20:33;48.32;47.55;49.32;;
66459;Laerm;56836;52.570;4.692;2022-11-20T00:20:43;48.28;47.33;49.10;;
66459;Laerm;56836;52.570;4.692;2022-11-20T00:20:54;48.36;47.34;49.32;;
66459;Laerm;56836;52.570;4.692;2022-11-20T00:21:10;48.32;46.82;49.41;;
66459;Laerm;56836;52.570;4.692;2022-11-20T00:21:25;48.33;47.10;49.40;;
66459;Laerm;56836;52.570;4.692;2022-11-20T00:21:35;48.35;47.36;49.31;;
66459;Laerm;56836;52.570;4.692;2022-11-20T00:21:46;48.31;47.38;49.07;;
66459;Laerm;56836;52.570;4.692;2022-11-20T00:21:56;48.34;47.33;49.17;;
66459;Laerm;56836;52.570;4.692;2022-11-20T00:22:06;48.39;47.44;49.28;;
66459;Laerm;56836;52.570;4.692;2022-11-20T00:22:17;48.38;47.52;49.24;;
66459;Laerm;56836;52.570;4.692;2022-11-20T00:22:27;48.36;47.32;49.23;;
66459;Laerm;56836;52.570;4.692;2022-11-20T00:22:37;48.34;47.50;49.18;;
66459;Laerm;56836;52.570;4.692;2022-11-20T00:22:48;48.33;47.60;49.23;;
66459;Laerm;56836;52.570;4.692;2022-11-20T00:22:59;48.36;46.93;49.27;;
66459;Laerm;56836;52.570;4.692;2022-11-20T00:23:09;48.36;47.39;49.25;;
66459;Laerm;56836;52.570;4.692;2022-11-20T00:23:19;48.39;47.55;49.39;;
66459;Laerm;56836;52.570;4.692;2022-11-20T00:23:31;48.35;47.26;49.44;;
66459;Laerm;56836;52.570;4.692;2022-11-20T00:23:41;48.39;47.55;49.33;;
66459;Laerm;56836;52.570;4.692;2022-11-20T00:23:54;48.40;47.44;49.50;;
66459;Laerm;56836;52.570;4.692;2022-11-20T00:24:05;48.40;47.33;49.22;;
66459;Laerm;56836;52.570;4.692;2022-11-20T00:24:15;48.37;47.41;49.11;;
66459;Laerm;56836;52.570;4.692;2022-11-20T00:24:26;48.38;47.31;49.14;;
66459;Laerm;56836;52.570;4.692;2022-11-20T00:24:36;48.39;47.62;49.18;;
66459;Laerm;56836;52.570;4.692;2022-11-20T00:24:46;48.41;47.46;49.46;;
66459;Laerm;56836;52.570;4.692;2022-11-20T00:24:57;48.39;47.34;49.49;;
66459;Laerm;56836;52.570;4.692;2022-11-20T00:25:07;48.37;47.41;49.45;;
66459;Laerm;56836;52.570;4.692;2022-11-20T00:25:18;48.40;47.56;49.39;;
66459;Laerm;56836;52.570;4.692;2022-11-20T00:25:30;48.37;47.25;49.39;;
66459;Laerm;56836;52.570;4.692;2022-11-20T00:25:40;48.38;47.21;49.11;;
66459;Laerm;56836;52.570;4.692;2022-11-20T00:25:50;48.41;47.41;49.56;;
66459;Laerm;56836;52.570;4.692;2022-11-20T00:26:03;48.39;47.24;49.14;;
66459;Laerm;56836;52.570;4.692;2022-11-20T00:26:14;48.42;47.41;49.35;;
66459;Laerm;56836;52.570;4.692;2022-11-20T00:26:25;48.40;47.65;49.41;;
66459;Laerm;56836;52.570;4.692;2022-11-20T00:26:36;48.38;47.47;49.18;;
66459;Laerm;56836;52.570;4.692;2022-11-20T00:26:46;48.41;47.34;49.18;;
66459;Laerm;56836;52.570;4.692;2022-11-20T00:26:57;48.40;47.20;49.12;;
66459;Laerm;56836;52.570;4.692;2022-11-20T00:27:07;48.45;47.47;49.46;;
66459;Laerm;56836;52.570;4.692;2022-11-20T00:27:17;48.41;47.49;49.28;;
66459;Laerm;56836;52.570;4.692;2022-11-20T00:27:28;48.42;47.48;49.44;;
66459;Laerm;56836;52.570;4.692;2022-11-20T00:27:38;48.37;47.53;49.26;;
66459;Laerm;56836;52.570;4.692;2022-11-20T00:27:48;48.42;47.56;49.18;;
66459;Laerm;56836;52.570;4.692;2022-11-20T00:27:58;48.46;47.18;49.35;;
66459;Laerm;56836;52.570;4.692;2022-11-20T00:28:09;48.44;47.56;49.56;;
66459;Laerm;56836;52.570;4.692;2022-11-20T00:28:19;48.39;47.55;49.48;;
66459;Laerm;56836;52.570;4.692;2022-11-20T00:28:29;48.45;47.47;49.40;;
66459;Laerm;56836;52.570;4.692;2022-11-20T00:28:40;48.43;47.48;49.40;;
66459;Laerm;56836;52.570;4.692;2022-11-20T00:28:55;48.43;47.41;49.43;;
66459;Laerm;56836;52.570;4.692;2022-11-20T00:29:06;48.44;47.47;49.34;;
66459;Laerm;56836;52.570;4.692;2022-11-20T00:29:16;48.38;47.50;49.43;;
66459;Laerm;56836;52.570;4.692;2022-11-20T00:29:26;48.44;47.37;49.37;;
66459;Laerm;56836;52.570;4.692;2022-11-20T00:29:37;48.49;47.48;49.25;;
66459;Laerm;56836;52.570;4.692;2022-11-20T00:29:47;48.44;47.61;49.32;;
66459;Laerm;56836;52.570;4.692;2022-11-20T00:29:57;48.42;47.46;49.60;;
66459;Laerm;56836;52.570;4.692;2022-11-20T00:30:08;48.44;47.48;49.63;;
66459;Laerm;56836;52.570;4.692;2022-11-20T00:30:18;48.43;47.40;49.30;;
66459;Laerm;56836;52.570;4.692;2022-11-20T00:30:29;48.45;47.22;49.22;;
66459;Laerm;56836;52.570;4.692;2022-11-20T00:30:39;48.43;47.51;49.38;;
66459;Laerm;56836;52.570;4.692;2022-11-20T00:30:52;48.40;47.45;49.29;;
66459;Laerm;56836;52.570;4.692;2022-11-20T00:31:06;48.46;47.37;49.51;;
66459;Laerm;56836;52.570;4.692;2022-11-20T00:31:17;48.47;47.42;49.40;;
66459;Laerm;56836;52.570;4.692;2022-11-20T00:31:28;48.46;47.51;49.36;;
66459;Laerm;56836;52.570;4.692;2022-11-20T00:31:39;48.47;47.59;49.43;;
66459;Laerm;56836;52.570;4.692;2022-11-20T00:31:49;48.42;47.37;49.39;;
66459;Laerm;56836;52.570;4.692;2022-11-20T00:31:59;48.45;47.16;49.33;;
66459;Laerm;56836;52.570;4.692;2022-11-20T00:32:10;48.42;47.32;49.26;;
66459;Laerm;56836;52.570;4.692;2022-11-20T00:32:20;48.42;47.58;49.42;;
66459;Laerm;56836;52.570;4.692;2022-11-20T00:32:30;48.43;47.45;49.20;;
66459;Laerm;56836;52.570;4.692;2022-11-20T00:32:41;48.45;47.40;49.48;;
66459;Laerm;56836;52.570;4.692;2022-11-20T00:32:51;48.47;47.54;49.35;;
66459;Laerm;56836;52.570;4.692;2022-11-20T00:33:01;48.41;47.50;49.40;;
66459;Laerm;56836;52.570;4.692;2022-11-20T00:33:12;48.48;47.49;49.34;;
66459;Laerm;56836;52.570;4.692;2022-11-20T00:33:22;48.44;47.53;49.31;;
66459;Laerm;56836;52.570;4.692;2022-11-20T00:33:32;48.42;47.40;49.39;;
66459;Laerm;56836;52.570;4.692;2022-11-20T00:33:43;48.42;47.36;49.25;;
66459;Laerm;56836;52.570;4.692;2022-11-20T00:33:54;48.50;47.48;49.50;;
66459;Laerm;56836;52.570;4.692;2022-11-20T00:34:04;48.43;47.51;49.49;;
66459;Laerm;56836;52.570;4.692;2022-11-20T00:34:15;48.44;47.44;49.23;;
66459;Laerm;56836;52.570;4.692;2022-11-20T00:34:25;48.42;47.46;49.18;;
66459;Laerm;56836;52.570;4.692;2022-11-20T00:34:35;48.44;47.56;49.24;;
66459;Laerm;56836;52.570;4.692;2022-11-20T00:34:46;48.42;47.34;49.18;;
66459;Laerm;56836;52.570;4.692;2022-11-20T00:34:56;48.41;47.53;49.29;;
66459;Laerm;56836;52.570;4.692;2022-11-20T00:35:06;48.47;47.35;49.35;;
66459;Laerm;56836;52.570;4.692;2022-11-20T00:35:17;48.41;47.52;49.33;;
66459;Laerm;56836;52.570;4.692;2022-11-20T00:35:27;48.44;47.55;49.32;;
66459;Laerm;56836;52.570;4.692;2022-11-20T00:35:37;48.43;47.54;49.38;;
66459;Laerm;56836;52.570;4.692;2022-11-20T00:35:48;48.49;47.40;49.32;;
66459;Laerm;56836;52.570;4.692;2022-11-20T00:35:59;48.48;47.52;49.32;;
66459;Laerm;56836;52.570;4.692;2022-11-20T00:36:10;48.45;47.13;49.27;;
66459;Laerm;56836;52.570;4.692;2022-11-20T00:36:21;48.42;47.62;49.39;;
66459;Laerm;56836;52.570;4.692;2022-11-20T00:36:33;48.44;47.55;49.28;;
66459;Laerm;56836;52.570;4.692;2022-11-20T00:36:43;48.47;47.44;49.43;;
66459;Laerm;56836;52.570;4.692;2022-11-20T00:36:54;48.44;47.46;49.20;;
66459;Laerm;56836;52.570;4.692;2022-11-20T00:37:04;48.43;47.53;49.36;;
66459;Laerm;56836;52.570;4.692;2022-11-20T00:37:14;48.44;47.48;49.42;;
66459;Laerm;56836;52.570;4.692;2022-11-20T00:37:25;48.46;47.39;49.31;;
66459;Laerm;56836;52.570;4.692;2022-11-20T00:37:35;48.47;47.36;49.49;;
66459;Laerm;56836;52.570;4.692;2022-11-20T00:37:45;48.46;47.45;49.40;;
66459;Laerm;56836;52.570;4.692;2022-11-20T00:37:56;48.47;47.34;49.60;;
66459;Laerm;56836;52.570;4.692;2022-11-20T00:38:06;48.49;47.60;49.30;;
66459;Laerm;56836;52.570;4.692;2022-11-20T00:38:16;48.47;47.37;49.45;;
66459;Laerm;56836;52.570;4.692;2022-11-20T00:38:27;48.43;47.45;49.33;;
66459;Laerm;56836;52.570;4.692;2022-11-20T00:38:37;48.47;47.42;49.66;;
66459;Laerm;56836;52.570;4.692;2022-11-20T00:38:50;48.41;47.52;49.42;;
66459;Laerm;56836;52.570;4.692;2022-11-20T00:39:01;48.47;47.60;49.53;;
66459;Laerm;56836;52.570;4.692;2022-11-20T00:39:11;48.42;47.34;49.26;;
66459;Laerm;56836;52.570;4.692;2022-11-20T00:39:22;48.44;47.63;49.27;;
66459;Laerm;56836;52.570;4.692;2022-11-20T00:39:32;48.43;47.34;49.29;;
66459;Laerm;56836;52.570;4.692;2022-11-20T00:39:42;48.45;47.58;49.34;;
66459;Laerm;56836;52.570;4.692;2022-11-20T00:39:53;48.42;47.34;49.14;;
66459;Laerm;56836;52.570;4.692;2022-11-20T00:40:03;48.42;47.15;49.79;;
66459;Laerm;56836;52.570;4.692;2022-11-20T00:40:13;48.42;47.46;49.25;;
66459;Laerm;56836;52.570;4.692;2022-11-20T00:40:24;48.36;47.56;49.27;;
66459;Laerm;56836;52.570;4.692;2022-11-20T00:40:34;48.41;47.49;49.39;;
66459;Laerm;56836;52.570;4.692;2022-11-20T00:40:44;48.44;47.36;49.39;;
66459;Laerm;56836;52.570;4.692;2022-11-20T00:40:56;48.38;47.32;49.19;;
66459;Laerm;56836;52.570;4.692;2022-11-20T00:41:07;48.40;47.51;49.43;;
66459;Laerm;56836;52.570;4.692;2022-11-20T00:41:18;48.41;47.53;49.36;;
66459;Laerm;56836;52.570;4.692;2022-11-20T00:41:28;48.39;47.38;49.38;;
66459;Laerm;56836;52.570;4.692;2022-11-20T00:41:39;48.39;47.35;49.33;;
66459;Laerm;56836;52.570;4.692;2022-11-20T00:41:49;48.39;47.55;49.30;;
66459;Laerm;56836;52.570;4.692;2022-11-20T00:42:00;48.42;47.44;49.68;;
66459;Laerm;56836;52.570;4.692;2022-11-20T00:42:10;48.33;47.54;49.31;;
66459;Laerm;56836;52.570;4.692;2022-11-20T00:42:21;48.37;47.57;49.16;;
66459;Laerm;56836;52.570;4.692;2022-11-20T00:42:31;48.39;47.48;49.22;;
66459;Laerm;56836;52.570;4.692;2022-11-20T00:42:42;48.36;47.35;49.37;;
66459;Laerm;56836;52.570;4.692;2022-11-20T00:42:53;48.33;47.51;49.13;;
66459;Laerm;56836;52.570;4.692;2022-11-20T00:43:03;48.37;47.51;49.42;;
66459;Laerm;56836;52.570;4.692;2022-11-20T00:43:13;48.36;47.45;49.13;;
66459;Laerm;56836;52.570;4.692;2022-11-20T00:43:24;48.35;47.48;49.31;;
66459;Laerm;56836;52.570;4.692;2022-11-20T00:43:35;48.33;47.25;49.29;;
66459;Laerm;56836;52.570;4.692;2022-11-20T00:43:45;48.31;47.41;49.19;;
66459;Laerm;56836;52.570;4.692;2022-11-20T00:43:56;48.29;47.33;49.21;;
66459;Laerm;56836;52.570;4.692;2022-11-20T00:44:06;48.32;47.46;49.41;;
66459;Laerm;56836;52.570;4.692;2022-11-20T00:44:16;48.31;47.30;49.31;;
66459;Laerm;56836;52.570;4.692;2022-11-20T00:44:27;48.29;47.25;49.17;;
66459;Laerm;56836;52.570;4.692;2022-11-20T00:44:37;48.34;47.27;49.50;;
66459;Laerm;56836;52.570;4.692;2022-11-20T00:44:47;48.35;47.61;49.36;;
66459;Laerm;56836;52.570;4.692;2022-11-20T00:44:58;48.34;47.37;49.15;;
66459;Laerm;56836;52.570;4.692;2022-11-20T00:45:08;48.32;47.36;49.32;;
66459;Laerm;56836;52.570;4.692;2022-11-20T00:45:18;48.30;47.32;49.09;;
66459;Laerm;56836;52.570;4.692;2022-11-20T00:45:32;48.34;47.21;49.07;;
66459;Laerm;56836;52.570;4.692;2022-11-20T00:45:42;48.33;47.39;49.29;;
66459;Laerm;56836;52.570;4.692;2022-11-20T00:45:56;48.29;47.23;49.30;;
66459;Laerm;56836;52.570;4.692;2022-11-20T00:46:13;48.31;46.93;49.26;;
66459;Laerm;56836;52.570;4.692;2022-11-20T00:46:25;48.28;47.41;49.24;;
66459;Laerm;56836;52.570;4.692;2022-11-20T00:46:35;48.29;47.25;49.10;;
66459;Laerm;56836;52.570;4.692;2022-11-20T00:46:46;48.28;47.37;49.29;;
66459;Laerm;56836;52.570;4.692;2022-11-20T00:46:56;48.35;47.33;49.41;;
66459;Laerm;56836;52.570;4.692;2022-11-20T00:47:07;48.29;47.44;49.20;;
66459;Laerm;56836;52.570;4.692;2022-11-20T00:47:17;48.37;47.33;49.44;;
66459;Laerm;56836;52.570;4.692;2022-11-20T00:47:27;48.35;46.81;49.18;;
66459;Laerm;56836;52.570;4.692;2022-11-20T00:47:38;48.34;47.38;49.56;;
66459;Laerm;56836;52.570;4.692;2022-11-20T00:47:48;48.35;47.47;49.22;;
66459;Laerm;56836;52.570;4.692;2022-11-20T00:47:58;48.37;47.45;49.39;;
66459;Laerm;56836;52.570;4.692;2022-11-20T00:48:09;48.33;47.50;49.06;;
66459;Laerm;56836;52.570;4.692;2022-11-20T00:48:19;48.34;47.08;49.01;;
66459;Laerm;56836;52.570;4.692;2022-11-20T00:48:29;48.34;47.50;49.55;;
66459;Laerm;56836;52.570;4.692;2022-11-20T00:48:40;48.37;47.31;49.45;;
66459;Laerm;56836;52.570;4.692;2022-11-20T00:48:51;48.36;47.68;49.18;;
66459;Laerm;56836;52.570;4.692;2022-11-20T00:49:01;48.38;47.50;49.37;;
66459;Laerm;56836;52.570;4.692;2022-11-20T00:49:11;48.36;47.39;49.22;;
66459;Laerm;56836;52.570;4.692;2022-11-20T00:49:22;48.34;47.44;49.25;;
66459;Laerm;56836;52.570;4.692;2022-11-20T00:49:32;48.39;47.24;49.66;;
66459;Laerm;56836;52.570;4.692;2022-11-20T00:49:42;48.34;47.64;49.34;;
66459;Laerm;56836;52.570;4.692;2022-11-20T00:49:53;48.44;47.37;49.48;;
66459;Laerm;56836;52.570;4.692;2022-11-20T00:50:03;48.38;47.59;49.40;;
66459;Laerm;56836;52.570;4.692;2022-11-20T00:50:14;48.37;47.37;49.40;;
66459;Laerm;56836;52.570;4.692;2022-11-20T00:50:24;48.37;47.47;49.37;;
66459;Laerm;56836;52.570;4.692;2022-11-20T00:50:34;48.35;47.51;49.18;;
66459;Laerm;56836;52.570;4.692;2022-11-20T00:50:44;48.38;47.36;49.41;;
66459;Laerm;56836;52.570;4.692;2022-11-20T00:50:55;48.37;47.35;49.32;;
66459;Laerm;56836;52.570;4.692;2022-11-20T00:51:05;48.37;47.55;49.53;;
66459;Laerm;56836;52.570;4.692;2022-11-20T00:51:17;48.39;47.51;49.21;;
66459;Laerm;56836;52.570;4.692;2022-11-20T00:51:28;48.37;47.47;49.49;;
66459;Laerm;56836;52.570;4.692;2022-11-20T00:51:38;48.42;47.53;49.38;;
66459;Laerm;56836;52.570;4.692;2022-11-20T00:51:48;48.39;47.42;49.42;;
66459;Laerm;56836;52.570;4.692;2022-11-20T00:51:59;48.40;47.52;49.30;;
66459;Laerm;56836;52.570;4.692;2022-11-20T00:52:09;48.41;47.30;49.33;;
66459;Laerm;56836;52.570;4.692;2022-11-20T00:52:20;48.39;47.47;49.28;;
66459;Laerm;56836;52.570;4.692;2022-11-20T00:52:30;48.41;47.65;49.35;;
66459;Laerm;56836;52.570;4.692;2022-11-20T00:52:40;48.40;47.37;49.31;;
66459;Laerm;56836;52.570;4.692;2022-11-20T00:52:51;48.40;47.34;49.30;;
66459;Laerm;56836;52.570;4.692;2022-11-20T00:53:01;48.45;47.68;49.43;;
66459;Laerm;56836;52.570;4.692;2022-11-20T00:53:11;48.41;47.24;49.61;;
66459;Laerm;56836;52.570;4.692;2022-11-20T00:53:24;48.48;47.70;49.31;;
66459;Laerm;56836;52.570;4.692;2022-11-20T00:53:35;48.41;47.23;49.60;;
66459;Laerm;56836;52.570;4.692;2022-11-20T00:53:46;48.39;47.40;49.24;;
66459;Laerm;56836;52.570;4.692;2022-11-20T00:53:56;48.44;47.54;49.37;;
66459;Laerm;56836;52.570;4.692;2022-11-20T00:54:07;48.44;47.52;49.29;;
66459;Laerm;56836;52.570;4.692;2022-11-20T00:54:17;48.41;47.37;49.28;;
66459;Laerm;56836;52.570;4.692;2022-11-20T00:54:28;48.47;47.62;49.46;;
66459;Laerm;56836;52.570;4.692;2022-11-20T00:54:38;48.45;47.45;49.51;;
66459;Laerm;56836;52.570;4.692;2022-11-20T00:54:49;48.43;47.32;49.22;;
66459;Laerm;56836;52.570;4.692;2022-11-20T00:54:59;48.45;47.68;49.32;;
66459;Laerm;56836;52.570;4.692;2022-11-20T00:55:10;48.42;47.47;49.29;;
66459;Laerm;56836;52.570;4.692;2022-11-20T00:55:20;48.43;47.44;49.22;;
66459;Laerm;56836;52.570;4.692;2022-11-20T00:55:30;48.43;47.47;49.48;;
66459;Laerm;56836;52.570;4.692;2022-11-20T00:55:40;48.41;47.51;49.45;;
66459;Laerm;56836;52.570;4.692;2022-11-20T00:55:58;48.45;47.54;49.44;;
66459;Laerm;56836;52.570;4.692;2022-11-20T00:56:12;48.45;47.54;49.46;;
66459;Laerm;56836;52.570;4.692;2022-11-20T00:56:24;48.49;47.51;49.71;;
66459;Laerm;56836;52.570;4.692;2022-11-20T00:56:34;48.47;47.62;49.64;;
66459;Laerm;56836;52.570;4.692;2022-11-20T00:56:45;48.49;47.37;49.77;;
66459;Laerm;56836;52.570;4.692;2022-11-20T00:56:55;48.45;47.28;49.50;;
66459;Laerm;56836;52.570;4.692;2022-11-20T00:57:05;48.49;47.70;49.42;;
66459;Laerm;56836;52.570;4.692;2022-11-20T00:57:16;48.46;47.37;49.54;;
66459;Laerm;56836;52.570;4.692;2022-11-20T00:57:26;48.50;47.56;49.38;;
66459;Laerm;56836;52.570;4.692;2022-11-20T00:57:36;48.47;47.49;49.31;;
66459;Laerm;56836;52.570;4.692;2022-11-20T00:57:47;48.45;47.66;49.29;;
66459;Laerm;56836;52.570;4.692;2022-11-20T00:57:57;48.45;47.74;49.44;;
66459;Laerm;56836;52.570;4.692;2022-11-20T00:58:07;48.53;47.64;49.57;;
66459;Laerm;56836;52.570;4.692;2022-11-20T00:58:17;48.49;47.33;49.43;;
66459;Laerm;56836;52.570;4.692;2022-11-20T00:58:31;48.47;47.55;49.60;;
66459;Laerm;56836;52.570;4.692;2022-11-20T00:58:43;48.47;47.51;49.51;;
66459;Laerm;56836;52.570;4.692;2022-11-20T00:58:53;48.50;47.45;49.35;;
66459;Laerm;56836;52.570;4.692;2022-11-20T00:59:04;48.45;47.50;49.39;;
66459;Laerm;56836;52.570;4.692;2022-11-20T00:59:14;48.48;47.37;49.41;;
66459;Laerm;56836;52.570;4.692;2022-11-20T00:59:24;48.47;47.44;49.41;;
66459;Laerm;56836;52.570;4.692;2022-11-20T00:59:35;48.45;47.46;49.60;;
66459;Laerm;56836;52.570;4.692;2022-11-20T00:59:45;48.49;47.54;49.51;;
66459;Laerm;56836;52.570;4.692;2022-11-20T00:59:55;48.47;47.58;49.45;;
66459;Laerm;56836;52.570;4.692;2022-11-20T01:00:06;48.48;47.59;49.47;;
66459;Laerm;56836;52.570;4.692;2022-11-20T01:00:16;48.48;47.65;49.41;;